Star Princess — ZCDD6 — position and weather

sailwx.info

Track history (hours):
 
Tides and Currents Weather Stations Pressure Air Temp Water Temp Dewpoint Dewpoint Depression Visibility Wind Speed Wind Dir Waves Ship Positions

Star Princess

Operator: Princess Cruises

Last reported at 2014-Sep-21 09:33 UTC. Time now 2014-Sep-21 10:03 UTC.
Position N 37°57' W 123°10'.

Length 289.6 m; beam 36 m; draft 8.4 m.

Type: Ship. MMSI: 310361000.

Date/timePositionNaut miles runAvg speedWind from/ knotsBaromVisibWave heightAir tempDewpointWater temp
2014-Sep-21 09:33N 37°57' W 123°10'1514.7
2014-Sep-21 08:34N 38°08' W 123°22'1414.4
2014-Sep-21 07:33N 38°11' W 123°40'1413.7
2014-Sep-21 06:33N 38°21' W 123°52'1414.0
2014-Sep-21 05:34N 38°32' W 124°04'1414.1
2014-Sep-21 04:33N 38°43' W 124°15'1413.8
2014-Sep-21 03:33N 38°55' W 124°22'1414.0
2014-Sep-21 02:33N 39°09' W 124°28'1413.9
2014-Sep-21 01:33N 39°22' W 124°34'1414.3
2014-Sep-21 00:33N 39°35' W 124°40'1414.1
2014-Sep-20 23:33N 39°49' W 124°46'4314.2
2014-Sep-20 20:32N 40°30' W 125°02'1313.7
2014-Sep-20 19:33N 40°43' W 125°03'44014.2
2014-Sep-19 12:33N 48°03' W 125°16'1616.1
2014-Sep-19 11:33N 48°19' W 125°10'1514.7
2014-Sep-19 10:33N 48°31' W 124°57'1717.1
2014-Sep-19 09:33N 48°27' W 124°32'1716.7
2014-Sep-19 08:33N 48°21' W 124°09'1716.6
2014-Sep-19 07:33N 48°16' W 123°45'1313.0
2014-Sep-19 06:33N 48°20' W 123°26'5 5.3
2014-Sep-19 05:33N 48°25' W 123°24'0 0.0
2014-Sep-19 04:33N 48°25' W 123°24'0 0.0
2014-Sep-19 03:32N 48°25' W 123°24'0 0.0
2014-Sep-19 02:32N 48°25' W 123°24'0 0.0
2014-Sep-19 01:31N 48°25' W 123°24'0 0.0
2014-Sep-19 00:31N 48°25' W 123°24'0 0.0
2014-Sep-18 23:31N 48°25' W 123°24'0 0.0
2014-Sep-18 22:31N 48°25' W 123°24'0 0.0
2014-Sep-18 21:31N 48°25' W 123°24'0 0.0
2014-Sep-18 20:33N 48°25' W 123°24'0 0.0
2014-Sep-18 19:33N 48°25' W 123°24'6 6.0
2014-Sep-18 18:34N 48°19' W 123°25'1211.8
2014-Sep-18 17:33N 48°13' W 123°41'1414.0
2014-Sep-18 16:33N 48°15' W 124°01'1414.1
2014-Sep-18 15:34N 48°22' W 124°20'1414.2
2014-Sep-18 14:34N 48°27' W 124°40'1414.3
2014-Sep-18 13:33N 48°28' W 125°02'1717.5
2014-Sep-18 12:33N 48°35' W 125°26'1817.8
2014-Sep-18 11:34N 48°43' W 125°50'1717.0
2014-Sep-18 10:34N 48°53' W 126°10'1717.5
2014-Sep-18 09:34N 49°04' W 126°32'33716.4
2014-Sep-17 13:00N 53°00' W 132°54'52 7.4 140 / 91008.310.8 1.015.012.316.5
2014-Sep-17 06:00N 53°12' W 134°18'   300 / 101010.8 5.4 14.012.216.0
2014-Sep-12 10:29N 47°43' W 128°12'1819.6
2014-Sep-12 09:33N 47°25' W 128°04'2019.7
2014-Sep-12 08:33N 47°06' W 127°55'2619.8
2014-Sep-12 07:12N 46°41' W 127°44'11318.1
2014-Sep-12 01:00N 44°54' W 126°54'22520.7 030 / 361018.410.8 1.019.611.318.0
2014-Sep-11 14:09N 41°19' W 125°26'1219.8
2014-Sep-11 13:33N 41°07' W 125°22'2019.8
2014-Sep-11 12:33N 40°49' W 125°14'1919.2
2014-Sep-11 11:33N 40°30' W 125°06'2020.0
2014-Sep-11 10:33N 40°11' W 124°58'  
Track history (hours):
 
Tides and Currents Weather Stations Pressure Air Temp Water Temp Dewpoint Dewpoint Depression Visibility Wind Speed Wind Dir Waves Ship Positions

Star Princess

Operator: Princess Cruises

Last reported at 2014-Sep-21 09:33 UTC. Time now 2014-Sep-21 10:03 UTC.
Position N 37°57' W 123°10'.

Length 289.6 m; beam 36 m; draft 8.4 m.

Type: Ship. MMSI: 310361000.

Date/timePositionNaut miles runAvg speedWind from/ knotsBaromVisibWave heightAir tempDewpointWater temp
2014-Sep-21 09:33N 37°57' W 123°10'1514.7
2014-Sep-21 08:34N 38°08' W 123°22'1414.4
2014-Sep-21 07:33N 38°11' W 123°40'1413.7
2014-Sep-21 06:33N 38°21' W 123°52'1414.0
2014-Sep-21 05:34N 38°32' W 124°04'1414.1
2014-Sep-21 04:33N 38°43' W 124°15'1413.8
2014-Sep-21 03:33N 38°55' W 124°22'1414.0
2014-Sep-21 02:33N 39°09' W 124°28'1413.9
2014-Sep-21 01:33N 39°22' W 124°34'1414.3
2014-Sep-21 00:33N 39°35' W 124°40'1414.1
2014-Sep-20 23:33N 39°49' W 124°46'4314.2
2014-Sep-20 20:32N 40°30' W 125°02'1313.7
2014-Sep-20 19:33N 40°43' W 125°03'44014.2
2014-Sep-19 12:33N 48°03' W 125°16'1616.1
2014-Sep-19 11:33N 48°19' W 125°10'1514.7
2014-Sep-19 10:33N 48°31' W 124°57'1717.1
2014-Sep-19 09:33N 48°27' W 124°32'1716.7
2014-Sep-19 08:33N 48°21' W 124°09'1716.6
2014-Sep-19 07:33N 48°16' W 123°45'1313.0
2014-Sep-19 06:33N 48°20' W 123°26'5 5.3
2014-Sep-19 05:33N 48°25' W 123°24'0 0.0
2014-Sep-19 04:33N 48°25' W 123°24'0 0.0
2014-Sep-19 03:32N 48°25' W 123°24'0 0.0
2014-Sep-19 02:32N 48°25' W 123°24'0 0.0
2014-Sep-19 01:31N 48°25' W 123°24'0 0.0
2014-Sep-19 00:31N 48°25' W 123°24'0 0.0
2014-Sep-18 23:31N 48°25' W 123°24'0 0.0
2014-Sep-18 22:31N 48°25' W 123°24'0 0.0
2014-Sep-18 21:31N 48°25' W 123°24'0 0.0
2014-Sep-18 20:33N 48°25' W 123°24'0 0.0
2014-Sep-18 19:33N 48°25' W 123°24'6 6.0
2014-Sep-18 18:34N 48°19' W 123°25'1211.8
2014-Sep-18 17:33N 48°13' W 123°41'1414.0
2014-Sep-18 16:33N 48°15' W 124°01'1414.1
2014-Sep-18 15:34N 48°22' W 124°20'1414.2
2014-Sep-18 14:34N 48°27' W 124°40'1414.3
2014-Sep-18 13:33N 48°28' W 125°02'1717.5
2014-Sep-18 12:33N 48°35' W 125°26'1817.8
2014-Sep-18 11:34N 48°43' W 125°50'1717.0
2014-Sep-18 10:34N 48°53' W 126°10'1717.5
2014-Sep-18 09:34N 49°04' W 126°32'33716.4
2014-Sep-17 13:00N 53°00' W 132°54'52 7.4 140 / 91008.310.8 1.015.012.316.5
2014-Sep-17 06:00N 53°12' W 134°18'   300 / 101010.8 5.4 14.012.216.0
2014-Sep-12 10:29N 47°43' W 128°12'1819.6
2014-Sep-12 09:33N 47°25' W 128°04'2019.7
2014-Sep-12 08:33N 47°06' W 127°55'2619.8
2014-Sep-12 07:12N 46°41' W 127°44'11318.1
2014-Sep-12 01:00N 44°54' W 126°54'22520.7 030 / 361018.410.8 1.019.611.318.0
2014-Sep-11 14:09N 41°19' W 125°26'1219.8
2014-Sep-11 13:33N 41°07' W 125°22'2019.8
2014-Sep-11 12:33N 40°49' W 125°14'1919.2
2014-Sep-11 11:33N 40°30' W 125°06'2020.0
2014-Sep-11 10:33N 40°11' W 124°58'  

Dump ship's entire track history